Aviation Digital Data Service (ADDS)

Output produced by METARs form (0538 UTC 19 March 2019)
found at http://www.aviationweather.gov/metar/data/
 
METAR text: WIOO 190500Z 22006KT 9999 BKN012 32/23 Q1010 NOSIG
Conditions at: WIOO (PONTIANAK/SUPADI, ID) observed 0500 UTC 19 March 2019
Temperature: 32.0°C (90°F)
Dewpoint: 23.0°C (73°F) [RH = 59%]
Pressure (altimeter): 29.82 inches Hg (1010.0 mb)
Winds: from the SW (220 degrees) at 7 MPH (6 knots; 3.1 m/s)
Visibility: 6 or more miles (10+ km)
Ceiling: 1200 feet AGL
Clouds: broken clouds at 1200 feet AGL
Weather: no significant weather observed at this time

METAR text: WIOO 190430Z 17003KT 9999 BKN013 32/22 Q1010 NOSIG
Conditions at: WIOO (PONTIANAK/SUPADI, ID) observed 0430 UTC 19 March 2019
Temperature: 32.0°C (90°F)
Dewpoint: 22.0°C (72°F) [RH = 56%]
Pressure (altimeter): 29.82 inches Hg (1010.0 mb)
Winds: from the S (170 degrees) at 3 MPH (3 knots; 1.5 m/s)
Visibility: 6 or more miles (10+ km)
Ceiling: 1300 feet AGL
Clouds: broken clouds at 1300 feet AGL
Weather: no significant weather observed at this time

METAR text: WIOO 190400Z 00000KT 9999 SCT013 31/22 Q1010 NOSIG
Conditions at: WIOO (PONTIANAK/SUPADI, ID) observed 0400 UTC 19 March 2019
Temperature: 31.0°C (88°F)
Dewpoint: 22.0°C (72°F) [RH = 59%]
Pressure (altimeter): 29.82 inches Hg (1010.0 mb)
Winds: calm
Visibility: 6 or more miles (10+ km)
Ceiling: at least 12,000 feet AGL
Clouds: scattered clouds at 1300 feet AGL
Weather: no significant weather observed at this time

METAR text: WIOO 190330Z 00000KT 9999 SCT013 31/23 Q1011 NOSIG
Conditions at: WIOO (PONTIANAK/SUPADI, ID) observed 0330 UTC 19 March 2019
Temperature: 31.0°C (88°F)
Dewpoint: 23.0°C (73°F) [RH = 63%]
Pressure (altimeter): 29.85 inches Hg (1011.0 mb)
Winds: calm
Visibility: 6 or more miles (10+ km)
Ceiling: at least 12,000 feet AGL
Clouds: scattered clouds at 1300 feet AGL
Weather: no significant weather observed at this time

METAR text: WIOO 190300Z 04006KT 9999 SCT013 30/23 Q1011 NOSIG
Conditions at: WIOO (PONTIANAK/SUPADI, ID) observed 0300 UTC 19 March 2019
Temperature: 30.0°C (86°F)
Dewpoint: 23.0°C (73°F) [RH = 66%]
Pressure (altimeter): 29.85 inches Hg (1011.0 mb)
Winds: from the NE (40 degrees) at 7 MPH (6 knots; 3.1 m/s)
Visibility: 6 or more miles (10+ km)
Ceiling: at least 12,000 feet AGL
Clouds: scattered clouds at 1300 feet AGL
Weather: no significant weather observed at this time

METAR text: WIOO 190230Z 00000KT 9999 SCT013 29/23 Q1012 NOSIG
Conditions at: WIOO (PONTIANAK/SUPADI, ID) observed 0230 UTC 19 March 2019
Temperature: 29.0°C (84°F)
Dewpoint: 23.0°C (73°F) [RH = 70%]
Pressure (altimeter): 29.88 inches Hg (1012.0 mb)
Winds: calm
Visibility: 6 or more miles (10+ km)
Ceiling: at least 12,000 feet AGL
Clouds: scattered clouds at 1300 feet AGL
Weather: no significant weather observed at this time

METAR text: WIOO 190200Z 05004KT 9999 FEW013 28/24 Q1012 NOSIG
Conditions at: WIOO (PONTIANAK/SUPADI, ID) observed 0200 UTC 19 March 2019
Temperature: 28.0°C (82°F)
Dewpoint: 24.0°C (75°F) [RH = 79%]
Pressure (altimeter): 29.88 inches Hg (1012.0 mb)
Winds: from the NE (50 degrees) at 5 MPH (4 knots; 2.1 m/s)
Visibility: 6 or more miles (10+ km)
Ceiling: at least 12,000 feet AGL
Clouds: few clouds at 1300 feet AGL
Weather: no significant weather observed at this time

METAR text: WIOO 190130Z 06004KT 9999 FEW013 27/24 Q1012 NOSIG
Conditions at: WIOO (PONTIANAK/SUPADI, ID) observed 0130 UTC 19 March 2019
Temperature: 27.0°C (81°F)
Dewpoint: 24.0°C (75°F) [RH = 84%]
Pressure (altimeter): 29.88 inches Hg (1012.0 mb)
Winds: from the ENE (60 degrees) at 5 MPH (4 knots; 2.1 m/s)
Visibility: 6 or more miles (10+ km)
Ceiling: at least 12,000 feet AGL
Clouds: few clouds at 1300 feet AGL
Weather: no significant weather observed at this time

METAR text: WIOO 190100Z 00000KT 8000 FEW013 26/24 Q1012 NOSIG
Conditions at: WIOO (PONTIANAK/SUPADI, ID) observed 0100 UTC 19 March 2019
Temperature: 26.0°C (79°F)
Dewpoint: 24.0°C (75°F) [RH = 89%]
Pressure (altimeter): 29.88 inches Hg (1012.0 mb)
Winds: calm
Visibility: 5 miles ( 8 km)
Ceiling: at least 12,000 feet AGL
Clouds: few clouds at 1300 feet AGL
Weather: no significant weather observed at this time

METAR text: WIOO 190030Z 00000KT 7000 FEW013 25/24 Q1012 NOSIG
Conditions at: WIOO (PONTIANAK/SUPADI, ID) observed 0030 UTC 19 March 2019
Temperature: 25.0°C (77°F)
Dewpoint: 24.0°C (75°F) [RH = 94%]
Pressure (altimeter): 29.88 inches Hg (1012.0 mb)
Winds: calm
Visibility: 4 miles ( 7 km)
Ceiling: at least 12,000 feet AGL
Clouds: few clouds at 1300 feet AGL
Weather: no significant weather observed at this time

METAR text: WIOO 190000Z 00000KT 4000 BR FEW013 24/24 Q1012 BECMG FM0030 9999
Conditions at: WIOO (PONTIANAK/SUPADI, ID) observed 0000 UTC 19 March 2019
Temperature: 24.0°C (75°F)
Dewpoint: 24.0°C (75°F) [RH = 100%]
Pressure (altimeter): 29.88 inches Hg (1012.0 mb)
Winds: calm
Visibility: 2.49 miles (4.01 km)
Ceiling: at least 12,000 feet AGL
Clouds: few clouds at 1300 feet AGL
Weather: BR  (mist)

METAR text: WIOO 182330Z 00000KT 3000 BR SCT013 24/23 Q1011 BECMG FM2400 8000 NSW
Conditions at: WIOO (PONTIANAK/SUPADI, ID) observed 2330 UTC 18 March 2019
Temperature: 24.0°C (75°F)
Dewpoint: 23.0°C (73°F) [RH = 94%]
Pressure (altimeter): 29.85 inches Hg (1011.0 mb)
Winds: calm
Visibility: 1.86 miles (2.99 km)
Ceiling: at least 12,000 feet AGL
Clouds: scattered clouds at 1300 feet AGL
Weather: BR  (mist)

METAR text: WIOO 182300Z 00000KT 3000 BR SCT013 23/22 Q1010 BECMG FM2400 8000 NSW
Conditions at: WIOO (PONTIANAK/SUPADI, ID) observed 2300 UTC 18 March 2019
Temperature: 23.0°C (73°F)
Dewpoint: 22.0°C (72°F) [RH = 94%]
Pressure (altimeter): 29.82 inches Hg (1010.0 mb)
Winds: calm
Visibility: 1.86 miles (2.99 km)
Ceiling: at least 12,000 feet AGL
Clouds: scattered clouds at 1300 feet AGL
Weather: BR  (mist)

METAR text: WIOO 182230Z 00000KT 6000 FEW013 24/23 Q1010 NOSIG
Conditions at: WIOO (PONTIANAK/SUPADI, ID) observed 2230 UTC 18 March 2019
Temperature: 24.0°C (75°F)
Dewpoint: 23.0°C (73°F) [RH = 94%]
Pressure (altimeter): 29.82 inches Hg (1010.0 mb)
Winds: calm
Visibility: 4 miles ( 6 km)
Ceiling: at least 12,000 feet AGL
Clouds: few clouds at 1300 feet AGL
Weather: no significant weather observed at this time

METAR text: WIOO 182200Z 00000KT 6000 FEW013 24/23 Q1010 NOSIG
Conditions at: WIOO (PONTIANAK/SUPADI, ID) observed 2200 UTC 18 March 2019
Temperature: 24.0°C (75°F)
Dewpoint: 23.0°C (73°F) [RH = 94%]
Pressure (altimeter): 29.82 inches Hg (1010.0 mb)
Winds: calm
Visibility: 4 miles ( 6 km)
Ceiling: at least 12,000 feet AGL
Clouds: few clouds at 1300 feet AGL
Weather: no significant weather observed at this time

METAR text: WIOO 181500Z 00000KT 6000 FEW013 25/24 Q1011 NOSIG
Conditions at: WIOO (PONTIANAK/SUPADI, ID) observed 1500 UTC 18 March 2019
Temperature: 25.0°C (77°F)
Dewpoint: 24.0°C (75°F) [RH = 94%]
Pressure (altimeter): 29.85 inches Hg (1011.0 mb)
Winds: calm
Visibility: 4 miles ( 6 km)
Ceiling: at least 12,000 feet AGL
Clouds: few clouds at 1300 feet AGL
Weather: no significant weather observed at this time

METAR text: WIOO 181430Z 00000KT 6000 FEW013 26/24 Q1011 NOSIG
Conditions at: WIOO (PONTIANAK/SUPADI, ID) observed 1430 UTC 18 March 2019
Temperature: 26.0°C (79°F)
Dewpoint: 24.0°C (75°F) [RH = 89%]
Pressure (altimeter): 29.85 inches Hg (1011.0 mb)
Winds: calm
Visibility: 4 miles ( 6 km)
Ceiling: at least 12,000 feet AGL
Clouds: few clouds at 1300 feet AGL
Weather: no significant weather observed at this time

METAR text: WIOO 181400Z 00000KT 6000 FEW013 26/24 Q1011 NOSIG
Conditions at: WIOO (PONTIANAK/SUPADI, ID) observed 1400 UTC 18 March 2019
Temperature: 26.0°C (79°F)
Dewpoint: 24.0°C (75°F) [RH = 89%]
Pressure (altimeter): 29.85 inches Hg (1011.0 mb)
Winds: calm
Visibility: 4 miles ( 6 km)
Ceiling: at least 12,000 feet AGL
Clouds: few clouds at 1300 feet AGL
Weather: no significant weather observed at this time

METAR text: WIOO 181330Z 00000KT 6000 FEW013 26/24 Q1010 NOSIG
Conditions at: WIOO (PONTIANAK/SUPADI, ID) observed 1330 UTC 18 March 2019
Temperature: 26.0°C (79°F)
Dewpoint: 24.0°C (75°F) [RH = 89%]
Pressure (altimeter): 29.82 inches Hg (1010.0 mb)
Winds: calm
Visibility: 4 miles ( 6 km)
Ceiling: at least 12,000 feet AGL
Clouds: few clouds at 1300 feet AGL
Weather: no significant weather observed at this time

METAR text: WIOO 181300Z 29003KT 6000 FEW013 26/24 Q1010 NOSIG
Conditions at: WIOO (PONTIANAK/SUPADI, ID) observed 1300 UTC 18 March 2019
Temperature: 26.0°C (79°F)
Dewpoint: 24.0°C (75°F) [RH = 89%]
Pressure (altimeter): 29.82 inches Hg (1010.0 mb)
Winds: from the WNW (290 degrees) at 3 MPH (3 knots; 1.5 m/s)
Visibility: 4 miles ( 6 km)
Ceiling: at least 12,000 feet AGL
Clouds: few clouds at 1300 feet AGL
Weather: no significant weather observed at this time

METAR text: WIOO 181230Z 26003KT 6000 FEW013 27/24 Q1010 NOSIG
Conditions at: WIOO (PONTIANAK/SUPADI, ID) observed 1230 UTC 18 March 2019
Temperature: 27.0°C (81°F)
Dewpoint: 24.0°C (75°F) [RH = 84%]
Pressure (altimeter): 29.82 inches Hg (1010.0 mb)
Winds: from the W (260 degrees) at 3 MPH (3 knots; 1.5 m/s)
Visibility: 4 miles ( 6 km)
Ceiling: at least 12,000 feet AGL
Clouds: few clouds at 1300 feet AGL
Weather: no significant weather observed at this time

METAR text: WIOO 181200Z 24004KT 7000 FEW013 27/24 Q1009 NOSIG
Conditions at: WIOO (PONTIANAK/SUPADI, ID) observed 1200 UTC 18 March 2019
Temperature: 27.0°C (81°F)
Dewpoint: 24.0°C (75°F) [RH = 84%]
Pressure (altimeter): 29.79 inches Hg (1009.0 mb)
Winds: from the WSW (240 degrees) at 5 MPH (4 knots; 2.1 m/s)
Visibility: 4 miles ( 7 km)
Ceiling: at least 12,000 feet AGL
Clouds: few clouds at 1300 feet AGL
Weather: no significant weather observed at this time

METAR text: WIOO 181130Z 25005KT 7000 FEW013 28/24 Q1009 NOSIG
Conditions at: WIOO (PONTIANAK/SUPADI, ID) observed 1130 UTC 18 March 2019
Temperature: 28.0°C (82°F)
Dewpoint: 24.0°C (75°F) [RH = 79%]
Pressure (altimeter): 29.79 inches Hg (1009.0 mb)
Winds: from the WSW (250 degrees) at 6 MPH (5 knots; 2.6 m/s)
Visibility: 4 miles ( 7 km)
Ceiling: at least 12,000 feet AGL
Clouds: few clouds at 1300 feet AGL
Weather: no significant weather observed at this time

METAR text: WIOO 181100Z 24004KT 8000 FEW013 29/24 Q1009 NOSIG
Conditions at: WIOO (PONTIANAK/SUPADI, ID) observed 1100 UTC 18 March 2019
Temperature: 29.0°C (84°F)
Dewpoint: 24.0°C (75°F) [RH = 74%]
Pressure (altimeter): 29.79 inches Hg (1009.0 mb)
Winds: from the WSW (240 degrees) at 5 MPH (4 knots; 2.1 m/s)
Visibility: 5 miles ( 8 km)
Ceiling: at least 12,000 feet AGL
Clouds: few clouds at 1300 feet AGL
Weather: no significant weather observed at this time

METAR text: WIOO 181030Z 24004KT 9999 FEW013 29/24 Q1009 NOSIG
Conditions at: WIOO (PONTIANAK/SUPADI, ID) observed 1030 UTC 18 March 2019
Temperature: 29.0°C (84°F)
Dewpoint: 24.0°C (75°F) [RH = 74%]
Pressure (altimeter): 29.79 inches Hg (1009.0 mb)
Winds: from the WSW (240 degrees) at 5 MPH (4 knots; 2.1 m/s)
Visibility: 6 or more miles (10+ km)
Ceiling: at least 12,000 feet AGL
Clouds: few clouds at 1300 feet AGL
Weather: no significant weather observed at this time

METAR text: WIOO 181000Z 26005KT 9999 FEW013 30/24 Q1008 NOSIG
Conditions at: WIOO (PONTIANAK/SUPADI, ID) observed 1000 UTC 18 March 2019
Temperature: 30.0°C (86°F)
Dewpoint: 24.0°C (75°F) [RH = 70%]
Pressure (altimeter): 29.76 inches Hg (1008.0 mb)
Winds: from the W (260 degrees) at 6 MPH (5 knots; 2.6 m/s)
Visibility: 6 or more miles (10+ km)
Ceiling: at least 12,000 feet AGL
Clouds: few clouds at 1300 feet AGL
Weather: no significant weather observed at this time

METAR text: WIOO 180930Z 27009KT 9999 FEW013 31/24 Q1008 NOSIG
Conditions at: WIOO (PONTIANAK/SUPADI, ID) observed 0930 UTC 18 March 2019
Temperature: 31.0°C (88°F)
Dewpoint: 24.0°C (75°F) [RH = 66%]
Pressure (altimeter): 29.76 inches Hg (1008.0 mb)
Winds: from the W (270 degrees) at 10 MPH (9 knots; 4.6 m/s)
Visibility: 6 or more miles (10+ km)
Ceiling: at least 12,000 feet AGL
Clouds: few clouds at 1300 feet AGL
Weather: no significant weather observed at this time

METAR text: WIOO 180900Z 25010KT 9999 FEW013 32/24 Q1007 NOSIG
Conditions at: WIOO (PONTIANAK/SUPADI, ID) observed 0900 UTC 18 March 2019
Temperature: 32.0°C (90°F)
Dewpoint: 24.0°C (75°F) [RH = 63%]
Pressure (altimeter): 29.73 inches Hg (1007.0 mb)
Winds: from the WSW (250 degrees) at 12 MPH (10 knots; 5.1 m/s)
Visibility: 6 or more miles (10+ km)
Ceiling: at least 12,000 feet AGL
Clouds: few clouds at 1300 feet AGL
Weather: no significant weather observed at this time

METAR text: WIOO 180830Z 28009KT 9999 SCT013 33/24 Q1007 NOSIG
Conditions at: WIOO (PONTIANAK/SUPADI, ID) observed 0830 UTC 18 March 2019
Temperature: 33.0°C (91°F)
Dewpoint: 24.0°C (75°F) [RH = 59%]
Pressure (altimeter): 29.73 inches Hg (1007.0 mb)
Winds: from the W (280 degrees) at 10 MPH (9 knots; 4.6 m/s)
Visibility: 6 or more miles (10+ km)
Ceiling: at least 12,000 feet AGL
Clouds: scattered clouds at 1300 feet AGL
Weather: no significant weather observed at this time

METAR text: WIOO 180800Z 25009KT 9999 FEW012CB SCT013 33/25 Q1007 NOSIG
Conditions at: WIOO (PONTIANAK/SUPADI, ID) observed 0800 UTC 18 March 2019
Temperature: 33.0°C (91°F)
Dewpoint: 25.0°C (77°F) [RH = 63%]
Pressure (altimeter): 29.73 inches Hg (1007.0 mb)
Winds: from the WSW (250 degrees) at 10 MPH (9 knots; 4.6 m/s)
Visibility: 6 or more miles (10+ km)
Ceiling: at least 12,000 feet AGL
Clouds: few clouds at 1200 feet AGL
scattered clouds at 1300 feet AGL
Weather: no significant weather observed at this time

METAR text: WIOO 180730Z 25008KT 9999 FEW012CB BKN013 33/25 Q1007 NOSIG
Conditions at: WIOO (PONTIANAK/SUPADI, ID) observed 0730 UTC 18 March 2019
Temperature: 33.0°C (91°F)
Dewpoint: 25.0°C (77°F) [RH = 63%]
Pressure (altimeter): 29.73 inches Hg (1007.0 mb)
Winds: from the WSW (250 degrees) at 9 MPH (8 knots; 4.1 m/s)
Visibility: 6 or more miles (10+ km)
Ceiling: 1300 feet AGL
Clouds: few clouds at 1200 feet AGL
broken clouds at 1300 feet AGL
Weather: no significant weather observed at this time

METAR text: WIOO 180700Z 01003KT 9999 BKN012 32/23 Q1007 NOSIG
Conditions at: WIOO (PONTIANAK/SUPADI, ID) observed 0700 UTC 18 March 2019
Temperature: 32.0°C (90°F)
Dewpoint: 23.0°C (73°F) [RH = 59%]
Pressure (altimeter): 29.73 inches Hg (1007.0 mb)
Winds: from the N (10 degrees) at 3 MPH (3 knots; 1.5 m/s)
Visibility: 6 or more miles (10+ km)
Ceiling: 1200 feet AGL
Clouds: broken clouds at 1200 feet AGL
Weather: no significant weather observed at this time

METAR text: WIOO 180630Z 04003KT 9999 BKN012 32/23 Q1008 NOSIG
Conditions at: WIOO (PONTIANAK/SUPADI, ID) observed 0630 UTC 18 March 2019
Temperature: 32.0°C (90°F)
Dewpoint: 23.0°C (73°F) [RH = 59%]
Pressure (altimeter): 29.76 inches Hg (1008.0 mb)
Winds: from the NE (40 degrees) at 3 MPH (3 knots; 1.5 m/s)
Visibility: 6 or more miles (10+ km)
Ceiling: 1200 feet AGL
Clouds: broken clouds at 1200 feet AGL
Weather: no significant weather observed at this time

METAR text: WIOO 180600Z 00000KT 9999 BKN012 32/23 Q1009 NOSIG
Conditions at: WIOO (PONTIANAK/SUPADI, ID) observed 0600 UTC 18 March 2019
Temperature: 32.0°C (90°F)
Dewpoint: 23.0°C (73°F) [RH = 59%]
Pressure (altimeter): 29.79 inches Hg (1009.0 mb)
Winds: calm
Visibility: 6 or more miles (10+ km)
Ceiling: 1200 feet AGL
Clouds: broken clouds at 1200 feet AGL
Weather: no significant weather observed at this time

METAR text: WIOO 180530Z 18004KT 9999 BKN012 32/23 Q1009 NOSIG
Conditions at: WIOO (PONTIANAK/SUPADI, ID) observed 0530 UTC 18 March 2019
Temperature: 32.0°C (90°F)
Dewpoint: 23.0°C (73°F) [RH = 59%]
Pressure (altimeter): 29.79 inches Hg (1009.0 mb)
Winds: from the S (180 degrees) at 5 MPH (4 knots; 2.1 m/s)
Visibility: 6 or more miles (10+ km)
Ceiling: 1200 feet AGL
Clouds: broken clouds at 1200 feet AGL
Weather: no significant weather observed at this time

METAR text: WIOO 180500Z 00000KT 9999 BKN012 32/23 Q1010 NOSIG
Conditions at: WIOO (PONTIANAK/SUPADI, ID) observed 0500 UTC 18 March 2019
Temperature: 32.0°C (90°F)
Dewpoint: 23.0°C (73°F) [RH = 59%]
Pressure (altimeter): 29.82 inches Hg (1010.0 mb)
Winds: calm
Visibility: 6 or more miles (10+ km)
Ceiling: 1200 feet AGL
Clouds: broken clouds at 1200 feet AGL
Weather: no significant weather observed at this time

METAR text: WIOO 180430Z 00000KT 9999 BKN012 31/23 Q1010 NOSIG
Conditions at: WIOO (PONTIANAK/SUPADI, ID) observed 0430 UTC 18 March 2019
Temperature: 31.0°C (88°F)
Dewpoint: 23.0°C (73°F) [RH = 63%]
Pressure (altimeter): 29.82 inches Hg (1010.0 mb)
Winds: calm
Visibility: 6 or more miles (10+ km)
Ceiling: 1200 feet AGL
Clouds: broken clouds at 1200 feet AGL
Weather: no significant weather observed at this time

METAR text: WIOO 180400Z 00000KT 9999 BKN012 30/24 Q1011 NOSIG
Conditions at: WIOO (PONTIANAK/SUPADI, ID) observed 0400 UTC 18 March 2019
Temperature: 30.0°C (86°F)
Dewpoint: 24.0°C (75°F) [RH = 70%]
Pressure (altimeter): 29.85 inches Hg (1011.0 mb)
Winds: calm
Visibility: 6 or more miles (10+ km)
Ceiling: 1200 feet AGL
Clouds: broken clouds at 1200 feet AGL
Weather: no significant weather observed at this time

METAR text: WIOO 180330Z 00000KT 9999 BKN012 30/25 Q1011 NOSIG
Conditions at: WIOO (PONTIANAK/SUPADI, ID) observed 0330 UTC 18 March 2019
Temperature: 30.0°C (86°F)
Dewpoint: 25.0°C (77°F) [RH = 75%]
Pressure (altimeter): 29.85 inches Hg (1011.0 mb)
Winds: calm
Visibility: 6 or more miles (10+ km)
Ceiling: 1200 feet AGL
Clouds: broken clouds at 1200 feet AGL
Weather: no significant weather observed at this time

METAR text: WIOO 180300Z 04004KT 9999 BKN012 30/25 Q1012 NOSIG
Conditions at: WIOO (PONTIANAK/SUPADI, ID) observed 0300 UTC 18 March 2019
Temperature: 30.0°C (86°F)
Dewpoint: 25.0°C (77°F) [RH = 75%]
Pressure (altimeter): 29.88 inches Hg (1012.0 mb)
Winds: from the NE (40 degrees) at 5 MPH (4 knots; 2.1 m/s)
Visibility: 6 or more miles (10+ km)
Ceiling: 1200 feet AGL
Clouds: broken clouds at 1200 feet AGL
Weather: no significant weather observed at this time

METAR text: WIOO 180230Z 05003KT 9999 BKN012 29/24 Q1012 NOSIG
Conditions at: WIOO (PONTIANAK/SUPADI, ID) observed 0230 UTC 18 March 2019
Temperature: 29.0°C (84°F)
Dewpoint: 24.0°C (75°F) [RH = 74%]
Pressure (altimeter): 29.88 inches Hg (1012.0 mb)
Winds: from the NE (50 degrees) at 3 MPH (3 knots; 1.5 m/s)
Visibility: 6 or more miles (10+ km)
Ceiling: 1200 feet AGL
Clouds: broken clouds at 1200 feet AGL
Weather: no significant weather observed at this time

METAR text: WIOO 180200Z 36003KT 9999 BKN012 28/24 Q1012 NOSIG
Conditions at: WIOO (PONTIANAK/SUPADI, ID) observed 0200 UTC 18 March 2019
Temperature: 28.0°C (82°F)
Dewpoint: 24.0°C (75°F) [RH = 79%]
Pressure (altimeter): 29.88 inches Hg (1012.0 mb)
Winds: from the N (360 degrees) at 3 MPH (3 knots; 1.5 m/s)
Visibility: 6 or more miles (10+ km)
Ceiling: 1200 feet AGL
Clouds: broken clouds at 1200 feet AGL
Weather: no significant weather observed at this time

METAR text: WIOO 180130Z 08003KT 9999 SCT011 27/24 Q1012 NOSIG
Conditions at: WIOO (PONTIANAK/SUPADI, ID) observed 0130 UTC 18 March 2019
Temperature: 27.0°C (81°F)
Dewpoint: 24.0°C (75°F) [RH = 84%]
Pressure (altimeter): 29.88 inches Hg (1012.0 mb)
Winds: from the E (80 degrees) at 3 MPH (3 knots; 1.5 m/s)
Visibility: 6 or more miles (10+ km)
Ceiling: at least 12,000 feet AGL
Clouds: scattered clouds at 1100 feet AGL
Weather: no significant weather observed at this time

METAR text: WIOO 180100Z 03004KT 9999 SCT010 26/24 Q1012 NOSIG
Conditions at: WIOO (PONTIANAK/SUPADI, ID) observed 0100 UTC 18 March 2019
Temperature: 26.0°C (79°F)
Dewpoint: 24.0°C (75°F) [RH = 89%]
Pressure (altimeter): 29.88 inches Hg (1012.0 mb)
Winds: from the NNE (30 degrees) at 5 MPH (4 knots; 2.1 m/s)
Visibility: 6 or more miles (10+ km)
Ceiling: at least 12,000 feet AGL
Clouds: scattered clouds at 1000 feet AGL
Weather: no significant weather observed at this time

METAR text: WIOO 180030Z 03004KT 9999 SCT0600 25/24 Q1012 NOSIG
Conditions at: WIOO (PONTIANAK/SUPADI, ID) observed 0030 UTC 18 March 2019
Temperature: 25.0°C (77°F)
Dewpoint: 24.0°C (75°F) [RH = 94%]
Pressure (altimeter): 29.88 inches Hg (1012.0 mb)
Winds: from the NNE (30 degrees) at 5 MPH (4 knots; 2.1 m/s)
Visibility: 6 or more miles (10+ km)
Ceiling: unknown
Clouds: missing
Weather: no significant weather observed at this time

METAR text: WIOO 180000Z 03004KT 3000 BR BKN003 25/24 Q1011 TEMPO TL0020 8000 NSW
Conditions at: WIOO (PONTIANAK/SUPADI, ID) observed 0000 UTC 18 March 2019
Temperature: 25.0°C (77°F)
Dewpoint: 24.0°C (75°F) [RH = 94%]
Pressure (altimeter): 29.85 inches Hg (1011.0 mb)
Winds: from the NNE (30 degrees) at 5 MPH (4 knots; 2.1 m/s)
Visibility: 1.86 miles (2.99 km)
Ceiling: 300 feet AGL
Clouds: broken clouds at 300 feet AGL
Weather: BR  (mist)

METAR text: WIOO 172330Z 04003KT 2000 BR SCT012 24/23 Q1011 NOSIG
Conditions at: WIOO (PONTIANAK/SUPADI, ID) observed 2330 UTC 17 March 2019
Temperature: 24.0°C (75°F)
Dewpoint: 23.0°C (73°F) [RH = 94%]
Pressure (altimeter): 29.85 inches Hg (1011.0 mb)
Winds: from the NE (40 degrees) at 3 MPH (3 knots; 1.5 m/s)
Visibility: 1.24 miles (2.00 km)
Ceiling: at least 12,000 feet AGL
Clouds: scattered clouds at 1200 feet AGL
Weather: BR  (mist)

METAR text: WIOO 172300Z 01003KT 3000 BR SCT013 24/24 Q1010 NOSIG
Conditions at: WIOO (PONTIANAK/SUPADI, ID) observed 2300 UTC 17 March 2019
Temperature: 24.0°C (75°F)
Dewpoint: 24.0°C (75°F) [RH = 100%]
Pressure (altimeter): 29.82 inches Hg (1010.0 mb)
Winds: from the N (10 degrees) at 3 MPH (3 knots; 1.5 m/s)
Visibility: 1.86 miles (2.99 km)
Ceiling: at least 12,000 feet AGL
Clouds: scattered clouds at 1300 feet AGL
Weather: BR  (mist)

METAR text: WIOO 172230Z 00000KT 3000 BR SCT013 24/24 Q1010 NOSIG
Conditions at: WIOO (PONTIANAK/SUPADI, ID) observed 2230 UTC 17 March 2019
Temperature: 24.0°C (75°F)
Dewpoint: 24.0°C (75°F) [RH = 100%]
Pressure (altimeter): 29.82 inches Hg (1010.0 mb)
Winds: calm
Visibility: 1.86 miles (2.99 km)
Ceiling: at least 12,000 feet AGL
Clouds: scattered clouds at 1300 feet AGL
Weather: BR  (mist)

METAR text: WIOO 172200Z 00000KT 2000 BR SCT013 25/24 Q1010 NOSIG
Conditions at: WIOO (PONTIANAK/SUPADI, ID) observed 2200 UTC 17 March 2019
Temperature: 25.0°C (77°F)
Dewpoint: 24.0°C (75°F) [RH = 94%]
Pressure (altimeter): 29.82 inches Hg (1010.0 mb)
Winds: calm
Visibility: 1.24 miles (2.00 km)
Ceiling: at least 12,000 feet AGL
Clouds: scattered clouds at 1300 feet AGL
Weather: BR  (mist)